createdAt,value
2022-12-20T00:01:09.018Z,21.07
2022-12-20T00:03:39.030Z,17.80
2022-12-20T00:06:07.892Z,22.73
2022-12-20T00:08:36.588Z,20.90
2022-12-20T00:11:06.030Z,25.73
2022-12-20T00:13:34.688Z,17.67
2022-12-20T00:16:08.059Z,21.13
2022-12-20T00:18:38.777Z,22.47
2022-12-20T00:21:07.984Z,21.70
2022-12-20T00:23:37.068Z,22.90
2022-12-20T00:26:06.492Z,22.17
2022-12-20T00:28:35.430Z,18.77
2022-12-20T00:31:05.198Z,17.90
2022-12-20T00:33:34.184Z,23.60
2022-12-20T00:36:04.164Z,21.07
2022-12-20T00:38:32.720Z,22.90
2022-12-20T00:41:02.481Z,19.63
2022-12-20T00:43:31.248Z,17.33
2022-12-20T00:46:00.035Z,19.23
2022-12-20T00:48:28.736Z,16.67
2022-12-20T00:51:00.226Z,19.80
2022-12-20T00:53:30.302Z,20.80
2022-12-20T00:55:58.921Z,17.33
2022-12-20T00:58:27.527Z,18.50
2022-12-20T01:00:57.147Z,21.50
2022-12-20T01:03:26.164Z,19.77
2022-12-20T01:05:55.499Z,14.87
2022-12-20T01:08:24.112Z,20.23
2022-12-20T01:11:01.681Z,20.30
2022-12-20T01:13:30.268Z,16.13
2022-12-20T01:15:59.460Z,16.03
2022-12-20T01:18:28.135Z,19.50
2022-12-20T01:21:03.092Z,16.67
2022-12-20T01:23:31.711Z,16.87
2022-12-20T01:26:02.483Z,22.27
2022-12-20T01:28:30.996Z,19.80
2022-12-20T01:31:00.455Z,17.93
2022-12-20T01:33:29.039Z,20.30
2022-12-20T01:35:58.836Z,20.63
2022-12-20T01:38:27.463Z,22.50
2022-12-20T01:40:56.807Z,19.20
2022-12-20T01:43:26.765Z,19.90
2022-12-20T01:45:55.317Z,19.07
2022-12-20T01:48:25.719Z,15.73
2022-12-20T01:50:54.453Z,17.50
2022-12-20T01:53:23.292Z,15.77
2022-12-20T01:55:51.879Z,17.23
2022-12-20T01:58:20.408Z,15.83
2022-12-20T02:00:50.867Z,19.23
2022-12-20T02:03:19.502Z,19.63
2022-12-20T02:05:48.179Z,16.90
2022-12-20T02:08:17.883Z,15.30
2022-12-20T02:10:56.119Z,17.63
2022-12-20T02:13:28.624Z,19.20
2022-12-20T02:15:58.839Z,14.27
2022-12-20T02:18:28.831Z,16.87
2022-12-20T02:21:12.749Z,17.60
2022-12-20T02:24:14.054Z,18.03
2022-12-20T02:27:07.958Z,18.33
2022-12-20T02:29:37.927Z,17.07
2022-12-20T02:32:12.885Z,17.97
2022-12-20T02:34:41.487Z,17.10
2022-12-20T02:37:10.047Z,15.70
2022-12-20T02:39:40.276Z,21.70
2022-12-20T02:42:10.190Z,15.30
2022-12-20T02:44:56.914Z,18.27
2022-12-20T02:47:28.068Z,20.63
2022-12-20T02:49:56.865Z,19.10
2022-12-20T02:52:26.534Z,14.50
2022-12-20T02:54:55.199Z,15.87
2022-12-20T02:57:26.710Z,16.27
2022-12-20T02:59:58.549Z,23.33
2022-12-20T03:02:28.683Z,12.80
2022-12-20T03:04:57.329Z,15.67
2022-12-20T03:07:25.854Z,17.43
2022-12-20T03:09:54.398Z,17.67
2022-12-20T03:12:22.933Z,17.17
2022-12-20T03:14:51.531Z,18.97
2022-12-20T03:17:20.125Z,17.70
2022-12-20T03:19:50.240Z,17.20
2022-12-20T03:22:18.766Z,15.57
2022-12-20T03:24:47.297Z,16.33
2022-12-20T03:27:16.630Z,16.77
2022-12-20T03:29:45.958Z,21.43
2022-12-20T03:32:14.496Z,13.90
2022-12-20T03:34:43.046Z,17.43
2022-12-20T03:37:13.081Z,15.77
2022-12-20T03:39:41.675Z,12.50
2022-12-20T03:42:10.288Z,16.77
2022-12-20T03:44:38.906Z,19.33
2022-12-20T03:47:07.537Z,16.93
2022-12-20T03:49:36.210Z,20.00
2022-12-20T03:52:04.853Z,15.60
2022-12-20T03:54:34.857Z,13.43
2022-12-20T03:57:03.443Z,13.23
2022-12-20T03:59:32.016Z,11.37
2022-12-20T04:02:00.993Z,18.77
2022-12-20T04:04:29.668Z,18.87
2022-12-20T04:06:58.232Z,22.97
2022-12-20T04:09:26.830Z,15.80
2022-12-20T04:11:56.777Z,16.20
2022-12-20T04:14:25.332Z,16.00
2022-12-20T04:16:53.888Z,16.33
2022-12-20T04:19:22.413Z,15.57
2022-12-20T04:21:50.957Z,14.33
2022-12-20T04:24:19.586Z,16.13
2022-12-20T04:26:49.247Z,15.90
2022-12-20T04:29:19.176Z,13.57
2022-12-20T04:31:47.768Z,15.40
2022-12-20T04:34:16.338Z,15.73
2022-12-20T04:36:44.928Z,13.50
2022-12-20T04:39:13.503Z,12.13
2022-12-20T04:41:42.123Z,19.47
2022-12-20T04:44:10.705Z,18.93
2022-12-20T04:46:40.722Z,13.80
2022-12-20T04:49:09.354Z,15.93
2022-12-20T04:51:37.871Z,13.13
2022-12-20T04:54:05.713Z,14.97
2022-12-20T04:56:34.306Z,17.43
2022-12-20T04:59:04.090Z,15.47
2022-12-20T05:01:32.739Z,14.50
2022-12-20T05:04:02.893Z,14.10
2022-12-20T05:06:31.492Z,14.07
2022-12-20T05:09:00.078Z,13.10
2022-12-20T05:11:28.835Z,13.63
2022-12-20T05:13:57.431Z,16.77
2022-12-20T05:16:26.119Z,21.23
2022-12-20T05:18:54.674Z,12.67
2022-12-20T05:21:42.188Z,15.67
2022-12-20T05:24:28.501Z,12.17
2022-12-20T05:26:57.272Z,15.10
2022-12-20T05:29:25.882Z,17.00
2022-12-20T05:31:54.947Z,14.00
2022-12-20T05:34:23.911Z,19.63
2022-12-20T05:36:54.011Z,11.70
2022-12-20T05:39:22.587Z,15.20
2022-12-20T05:41:51.278Z,15.40
2022-12-20T05:44:20.249Z,16.40
2022-12-20T05:46:48.894Z,17.00
2022-12-20T05:49:17.928Z,12.97
2022-12-20T05:51:46.455Z,16.53
2022-12-20T05:54:16.445Z,17.33
2022-12-20T05:56:45.013Z,15.30
2022-12-20T05:59:13.611Z,15.80
2022-12-20T06:01:42.608Z,18.57
2022-12-20T06:04:11.414Z,13.07
2022-12-20T06:06:40.075Z,14.53
2022-12-20T06:09:08.816Z,16.03
2022-12-20T06:11:38.727Z,15.53
2022-12-20T06:14:07.310Z,16.47
2022-12-20T06:16:36.706Z,19.70
2022-12-20T06:19:05.485Z,17.30
2022-12-20T06:21:34.042Z,18.17
2022-12-20T06:24:02.606Z,15.90
2022-12-20T06:26:36.112Z,16.43
2022-12-20T06:29:07.135Z,18.13
2022-12-20T06:31:35.798Z,16.73
2022-12-20T06:34:04.342Z,15.60
2022-12-20T06:36:32.895Z,17.40
2022-12-20T06:39:07.588Z,15.00
2022-12-20T06:41:38.091Z,21.00
2022-12-20T06:44:08.369Z,15.83
2022-12-20T06:46:37.036Z,17.87
2022-12-20T06:49:05.764Z,16.60
2022-12-20T06:51:34.330Z,15.40
2022-12-20T06:54:02.882Z,16.27
2022-12-20T06:56:36.094Z,16.90
2022-12-20T06:59:09.342Z,20.67
2022-12-20T07:01:38.072Z,22.50
2022-12-20T07:04:07.199Z,17.60
2022-12-20T07:06:35.740Z,19.93
2022-12-20T07:09:04.836Z,16.30
2022-12-20T07:11:33.435Z,16.00
2022-12-20T07:14:01.966Z,25.47
2022-12-20T07:16:32.312Z,30.33
2022-12-20T07:19:01.254Z,58.30
2022-12-20T07:21:29.972Z,45.30
2022-12-20T07:23:58.553Z,23.67
2022-12-20T07:26:27.165Z,20.77
2022-12-20T07:28:55.770Z,22.30
2022-12-20T07:31:24.394Z,20.17
2022-12-20T07:33:54.651Z,22.40
2022-12-20T07:36:23.175Z,22.70
2022-12-20T07:38:51.750Z,19.13
2022-12-20T07:41:20.459Z,19.13
2022-12-20T07:43:49.040Z,14.43
2022-12-20T07:46:17.955Z,18.03
2022-12-20T07:48:46.588Z,16.23
2022-12-20T07:51:18.667Z,16.30
2022-12-20T07:53:48.205Z,20.13
2022-12-20T07:56:16.769Z,18.30
2022-12-20T07:58:45.439Z,18.90
2022-12-20T08:01:14.183Z,20.47
2022-12-20T08:03:45.399Z,21.63
2022-12-20T08:06:14.184Z,46.27
2022-12-20T08:08:45.302Z,33.33
2022-12-20T08:11:13.924Z,20.10
2022-12-20T08:13:46.215Z,21.50
2022-12-20T08:16:16.140Z,18.70
2022-12-20T08:18:44.742Z,17.10
2022-12-20T08:21:14.718Z,22.87
2022-12-20T08:23:44.733Z,16.27
2022-12-20T08:26:13.443Z,23.40
2022-12-20T08:28:42.022Z,24.10
2022-12-20T08:31:10.852Z,20.30
2022-12-20T08:33:40.233Z,26.70
2022-12-20T08:36:10.553Z,24.87
2022-12-20T08:38:39.161Z,23.60
2022-12-20T08:41:11.052Z,21.30
2022-12-20T08:43:39.933Z,17.77
2022-12-20T08:46:08.783Z,24.43
2022-12-20T08:48:37.406Z,19.63
2022-12-20T08:51:07.308Z,18.70
2022-12-20T08:53:36.265Z,20.17
2022-12-20T08:56:10.135Z,15.87
2022-12-20T08:58:38.801Z,19.10
2022-12-20T09:01:08.478Z,17.10
2022-12-20T09:03:37.698Z,15.97
2022-12-20T09:06:07.783Z,28.73
2022-12-20T09:08:36.447Z,26.70
2022-12-20T09:11:06.299Z,23.97
2022-12-20T09:13:43.163Z,25.50
2022-12-20T09:16:13.442Z,23.63
2022-12-20T09:18:42.457Z,18.90
2022-12-20T09:21:11.487Z,26.77
2022-12-20T09:23:40.056Z,24.83
2022-12-20T09:26:09.670Z,18.60
2022-12-20T09:28:39.640Z,17.90
2022-12-20T09:31:09.711Z,27.27
2022-12-20T09:33:38.364Z,43.63
2022-12-20T09:36:07.668Z,31.43
2022-12-20T09:38:36.726Z,34.60
2022-12-20T09:41:06.245Z,33.67
2022-12-20T09:43:34.909Z,35.90
2022-12-20T09:46:05.312Z,28.83
2022-12-20T09:48:35.333Z,21.47
2022-12-20T09:51:09.023Z,22.07
2022-12-20T09:53:41.764Z,16.33
2022-12-20T09:56:13.869Z,21.50
2022-12-20T09:58:59.191Z,16.30
2022-12-20T10:01:36.209Z,19.70
2022-12-20T10:04:16.919Z,14.17
2022-12-20T10:06:48.634Z,19.60
2022-12-20T10:09:26.584Z,17.73
2022-12-20T10:12:02.652Z,22.93
2022-12-20T10:14:48.352Z,18.00
2022-12-20T10:17:25.019Z,13.07
2022-12-20T10:20:05.032Z,15.20
2022-12-20T10:22:38.770Z,20.23
2022-12-20T10:25:17.218Z,17.23
2022-12-20T10:27:46.252Z,16.13
2022-12-20T10:30:18.707Z,22.97
2022-12-20T10:32:49.998Z,16.53
2022-12-20T10:35:26.920Z,15.33
2022-12-20T10:38:09.968Z,14.30
2022-12-20T10:41:19.613Z,14.40
2022-12-20T10:43:28.491Z,20.03
2022-12-20T10:45:58.835Z,18.90
2022-12-20T10:48:34.036Z,21.30
2022-12-20T10:51:04.056Z,19.73
2022-12-20T10:53:32.840Z,16.97
2022-12-20T10:56:17.401Z,23.13
2022-12-20T10:58:47.569Z,18.77
2022-12-20T11:01:18.214Z,15.40
2022-12-20T11:03:59.181Z,17.70
2022-12-20T11:06:30.607Z,13.47
2022-12-20T11:09:28.427Z,21.40
2022-12-20T11:12:00.186Z,16.43
2022-12-20T11:14:34.581Z,25.37
2022-12-20T11:17:16.488Z,29.73
2022-12-20T11:19:59.045Z,22.57
2022-12-20T11:22:34.569Z,25.40
2022-12-20T11:25:09.113Z,23.77
2022-12-20T11:27:41.530Z,26.30
2022-12-20T11:30:18.702Z,22.80
2022-12-20T11:33:04.297Z,29.43
2022-12-20T11:35:39.287Z,17.40
2022-12-20T11:38:11.466Z,44.93
2022-12-20T11:40:42.052Z,28.00
2022-12-20T11:43:26.882Z,18.70
2022-12-20T11:46:03.496Z,20.17
2022-12-20T11:48:46.468Z,18.00
2022-12-20T11:51:26.384Z,13.37
2022-12-20T11:53:58.541Z,17.50
2022-12-20T11:56:29.372Z,23.20
2022-12-20T11:58:58.751Z,14.70
2022-12-20T12:01:30.324Z,16.07
2022-12-20T12:04:06.410Z,19.90
2022-12-20T12:06:37.057Z,29.33
2022-12-20T12:09:17.068Z,15.87
2022-12-20T12:14:56.673Z,29.80
2022-12-20T12:17:28.491Z,23.57
2022-12-20T12:19:58.481Z,17.10
2022-12-20T12:22:30.384Z,23.83
2022-12-20T12:25:00.594Z,22.23
2022-12-20T12:27:29.668Z,18.00
2022-12-20T12:29:58.942Z,20.00
2022-12-20T12:32:30.734Z,31.47
2022-12-20T12:35:16.391Z,29.27
2022-12-20T12:37:54.950Z,62.97
2022-12-20T12:40:57.043Z,42.27
2022-12-20T12:43:47.121Z,31.00
2022-12-20T12:46:17.383Z,26.43
2022-12-20T12:48:48.363Z,27.57
2022-12-20T12:51:17.090Z,43.13
2022-12-20T12:53:50.143Z,31.20
2022-12-20T12:56:44.325Z,31.97
2022-12-20T12:59:51.796Z,23.27
2022-12-20T13:02:36.499Z,21.83
2022-12-20T13:05:30.606Z,22.80
2022-12-20T13:08:00.717Z,22.80
2022-12-20T13:10:59.653Z,21.63
2022-12-20T13:13:28.298Z,19.05
2022-12-20T13:17:02.212Z,21.30
2022-12-20T13:19:18.383Z,23.40
2022-12-20T13:21:48.504Z,17.17
2022-12-20T13:24:56.737Z,19.20
2022-12-20T13:27:28.785Z,15.97
2022-12-20T13:30:00.391Z,15.60
2022-12-20T13:33:14.457Z,15.80
2022-12-20T13:35:59.567Z,21.80
2022-12-20T13:38:52.115Z,20.23
2022-12-20T13:41:38.118Z,19.60
2022-12-20T13:44:33.019Z,25.00
2022-12-20T13:47:04.911Z,18.20
2022-12-20T13:49:35.984Z,20.33
2022-12-20T13:52:31.672Z,19.07
2022-12-20T13:55:01.843Z,19.60
2022-12-20T13:57:32.315Z,15.20
2022-12-20T14:00:11.531Z,18.50
2022-12-20T14:02:42.623Z,18.90
2022-12-20T14:05:17.022Z,17.63
2022-12-20T14:07:46.736Z,18.00
2022-12-20T14:10:20.807Z,17.50
2022-12-20T14:12:52.831Z,21.83
2022-12-20T14:15:25.695Z,18.73
2022-12-20T14:17:54.378Z,26.37
2022-12-20T14:20:25.522Z,29.33
2022-12-20T14:23:04.133Z,20.03
2022-12-20T14:25:36.473Z,32.30
2022-12-20T14:28:05.096Z,32.63
2022-12-20T14:30:37.700Z,33.60
2022-12-20T14:33:06.361Z,32.80
2022-12-20T14:35:35.023Z,22.20
2022-12-20T14:38:04.223Z,21.53
2022-12-20T14:40:33.570Z,21.70
2022-12-20T14:43:02.182Z,24.03
2022-12-20T14:45:30.791Z,23.30
2022-12-20T14:48:02.985Z,20.73
2022-12-20T14:50:32.975Z,20.03
2022-12-20T14:53:01.839Z,22.47
2022-12-20T14:55:34.213Z,20.53
2022-12-20T14:58:02.791Z,20.70
2022-12-20T15:00:31.849Z,23.17
2022-12-20T15:03:03.840Z,28.30
2022-12-20T15:05:53.686Z,27.43
2022-12-20T15:08:24.246Z,30.63
2022-12-20T15:10:58.445Z,28.57
2022-12-20T15:13:29.955Z,31.77
2022-12-20T15:16:01.250Z,39.17
2022-12-20T15:18:31.424Z,35.30
2022-12-20T15:21:04.708Z,33.57
2022-12-20T15:23:33.306Z,41.67
2022-12-20T15:26:01.905Z,60.37
2022-12-20T15:28:30.494Z,53.10
2022-12-20T15:30:59.221Z,58.13
2022-12-20T15:33:31.444Z,46.70
2022-12-20T15:35:59.986Z,34.77
2022-12-20T15:38:54.932Z,31.83
2022-12-20T15:41:20.803Z,28.50
2022-12-20T15:43:49.388Z,21.70
2022-12-20T15:46:18.058Z,25.03
2022-12-20T15:48:48.131Z,30.30
2022-12-20T15:51:17.728Z,30.63
2022-12-20T15:53:46.321Z,34.07
2022-12-20T15:56:18.372Z,30.83
2022-12-20T15:58:47.651Z,24.20
2022-12-20T16:01:17.181Z,29.93
2022-12-20T16:03:47.440Z,25.13
2022-12-20T16:06:16.143Z,31.07
2022-12-20T16:08:44.672Z,25.80
2022-12-20T16:11:20.307Z,32.63
2022-12-20T16:13:48.954Z,30.63
2022-12-20T16:16:19.150Z,32.27
2022-12-20T16:18:49.482Z,32.53
2022-12-20T16:21:18.961Z,29.20
2022-12-20T16:23:47.582Z,27.67
2022-12-20T16:26:16.338Z,33.27
2022-12-20T16:28:44.968Z,34.13
2022-12-20T16:31:18.606Z,27.50
2022-12-20T16:33:48.533Z,33.13
2022-12-20T16:36:17.095Z,31.37
2022-12-20T16:38:45.905Z,29.97
2022-12-20T16:41:15.564Z,27.20
2022-12-20T16:43:44.176Z,28.20
2022-12-20T16:46:13.683Z,35.50
2022-12-20T16:48:42.704Z,35.80
2022-12-20T16:51:24.434Z,29.70
2022-12-20T16:56:42.026Z,29.50
2022-12-20T16:59:20.724Z,36.80
2022-12-20T17:01:49.977Z,32.50
2022-12-20T17:04:19.284Z,29.20
2022-12-20T17:06:49.605Z,29.93
2022-12-20T17:12:06.640Z,37.27
2022-12-20T17:14:35.279Z,36.97
2022-12-20T17:17:03.904Z,38.53
2022-12-20T17:19:32.485Z,38.30
2022-12-20T17:24:48.333Z,40.53
2022-12-20T17:27:16.944Z,37.97
2022-12-20T17:29:45.563Z,34.67
2022-12-20T17:32:20.372Z,37.10
2022-12-20T17:34:49.049Z,32.50
2022-12-20T17:37:19.013Z,31.70
2022-12-20T17:39:47.732Z,35.00
2022-12-20T17:42:16.655Z,33.03
2022-12-20T17:44:46.090Z,34.97
2022-12-20T17:47:14.774Z,33.97
2022-12-20T17:49:43.386Z,29.37
2022-12-20T17:52:14.527Z,32.20
2022-12-20T17:54:44.456Z,32.50
2022-12-20T17:57:15.301Z,36.67
2022-12-20T17:59:44.036Z,32.77
2022-12-20T18:02:21.746Z,33.10
2022-12-20T18:04:50.845Z,33.23
2022-12-20T18:07:19.554Z,31.40
2022-12-20T18:09:51.047Z,30.77
2022-12-20T18:12:19.754Z,35.47
2022-12-20T18:14:50.141Z,34.77
2022-12-20T18:17:18.737Z,33.70
2022-12-20T18:19:47.312Z,31.73
2022-12-20T18:22:15.935Z,38.50
2022-12-20T18:24:44.514Z,56.63
2022-12-20T18:27:14.909Z,30.43
2022-12-20T18:29:43.530Z,31.33
2022-12-20T18:32:12.528Z,28.67
2022-12-20T18:34:41.189Z,30.43
2022-12-20T18:37:09.799Z,31.60
2022-12-20T18:39:38.505Z,28.90
2022-12-20T18:42:07.181Z,33.33
2022-12-20T18:44:37.261Z,29.33
2022-12-20T18:47:06.034Z,28.67
2022-12-20T18:49:34.672Z,29.00
2022-12-20T18:52:03.279Z,23.90
2022-12-20T18:54:31.919Z,30.60
2022-12-20T18:57:00.534Z,29.43
2022-12-20T18:59:29.247Z,30.30
2022-12-20T19:01:59.917Z,31.03
2022-12-20T19:04:28.627Z,28.77
2022-12-20T19:06:58.209Z,24.90
2022-12-20T19:09:26.884Z,27.33
2022-12-20T19:11:57.740Z,26.27
2022-12-20T19:14:27.274Z,27.90
2022-12-20T19:16:56.181Z,29.20
2022-12-20T19:19:26.490Z,28.73
2022-12-20T19:21:55.220Z,25.47
2022-12-20T19:24:23.889Z,27.77
2022-12-20T19:26:52.529Z,27.00
2022-12-20T19:29:21.340Z,25.43
2022-12-20T19:31:50.074Z,25.57
2022-12-20T19:34:18.883Z,21.70
2022-12-20T19:36:49.203Z,26.23
2022-12-20T19:39:19.914Z,30.90
2022-12-20T19:42:15.490Z,32.47
2022-12-20T19:44:37.176Z,26.50
2022-12-20T19:47:06.142Z,30.07
2022-12-20T19:49:35.485Z,24.90
2022-12-20T19:52:05.998Z,28.37
2022-12-20T19:54:35.181Z,27.23
2022-12-20T19:57:03.954Z,27.80
2022-12-20T19:59:32.600Z,24.30
2022-12-20T20:02:01.506Z,28.17
2022-12-20T20:04:30.342Z,27.83
2022-12-20T20:06:59.046Z,24.43
2022-12-20T20:09:30.169Z,26.00
2022-12-20T20:11:58.977Z,23.30
2022-12-20T20:14:27.617Z,24.90
2022-12-20T20:16:56.182Z,28.73
2022-12-20T20:19:24.781Z,23.17
2022-12-20T20:21:53.454Z,23.70
2022-12-20T20:24:22.114Z,25.73
2022-12-20T20:26:52.099Z,26.60
2022-12-20T20:29:20.708Z,27.73
2022-12-20T20:31:50.094Z,25.13
2022-12-20T20:34:19.014Z,25.30
2022-12-20T20:36:47.710Z,29.13
2022-12-20T20:39:16.363Z,26.53
2022-12-20T20:41:44.963Z,24.57
2022-12-20T20:44:15.106Z,27.80
2022-12-20T20:46:43.775Z,28.20
2022-12-20T20:49:12.613Z,24.27
2022-12-20T20:51:41.441Z,24.10
2022-12-20T20:54:10.920Z,27.47
2022-12-20T20:56:40.515Z,20.50
2022-12-20T20:59:15.160Z,26.93
2022-12-20T21:01:47.515Z,33.50
2022-12-20T21:04:16.233Z,26.80
2022-12-20T21:06:46.017Z,26.73
2022-12-20T21:09:14.745Z,21.27
2022-12-20T21:11:43.548Z,25.33
2022-12-20T21:14:12.532Z,28.50
2022-12-20T21:16:41.981Z,23.33
2022-12-20T21:19:12.320Z,31.90
2022-12-20T21:21:40.844Z,27.90
2022-12-20T21:24:09.864Z,34.30
2022-12-20T21:26:38.422Z,28.50
2022-12-20T21:29:07.042Z,27.10
2022-12-20T21:31:36.146Z,30.27
2022-12-20T21:34:04.819Z,30.20
2022-12-20T21:36:35.874Z,22.67
2022-12-20T21:39:04.613Z,28.80
2022-12-20T21:41:33.159Z,26.37
2022-12-20T21:44:01.875Z,29.90
2022-12-20T21:46:31.850Z,27.80
2022-12-20T21:49:01.023Z,24.27
2022-12-20T21:51:30.129Z,25.90
2022-12-20T21:54:00.807Z,27.87
2022-12-20T21:56:30.304Z,27.07
2022-12-20T21:58:58.888Z,28.23
2022-12-20T22:01:28.289Z,30.00
2022-12-20T22:03:58.396Z,30.93
2022-12-20T22:06:27.994Z,22.97
2022-12-20T22:08:59.161Z,28.63
2022-12-20T22:11:28.000Z,32.33
2022-12-20T22:13:56.909Z,31.73
2022-12-20T22:16:26.364Z,26.20
2022-12-20T22:18:55.642Z,29.50
2022-12-20T22:21:25.047Z,27.33
2022-12-20T22:23:54.802Z,27.97
2022-12-20T22:26:25.653Z,25.50
2022-12-20T22:28:55.486Z,30.40
2022-12-20T22:31:24.136Z,30.97
2022-12-20T22:33:53.339Z,27.00
2022-12-20T22:36:22.786Z,28.33
2022-12-20T22:38:52.622Z,26.10
2022-12-20T22:41:23.571Z,26.50
2022-12-20T22:43:52.865Z,28.80
2022-12-20T22:46:21.613Z,33.23
2022-12-20T22:48:50.235Z,26.87
2022-12-20T22:51:19.790Z,25.57
2022-12-20T22:53:49.638Z,23.77
2022-12-20T22:56:19.450Z,26.90
2022-12-20T22:58:49.449Z,26.70
2022-12-20T23:01:19.058Z,28.13
2022-12-20T23:03:49.164Z,25.43
2022-12-20T23:06:18.630Z,24.10
2022-12-20T23:08:47.432Z,32.70
2022-12-20T23:11:35.671Z,26.47
2022-12-20T23:14:23.263Z,28.40
2022-12-20T23:16:52.068Z,35.40
2022-12-20T23:19:20.674Z,24.53
2022-12-20T23:22:06.840Z,24.90
2022-12-20T23:24:35.430Z,24.83
2022-12-20T23:27:04.049Z,30.10
2022-12-20T23:29:34.054Z,27.20
2022-12-20T23:32:02.706Z,33.07
2022-12-20T23:34:31.385Z,29.70
2022-12-20T23:37:00.387Z,27.40
2022-12-20T23:39:28.954Z,31.00
2022-12-20T23:41:57.532Z,28.60
2022-12-20T23:44:26.150Z,31.00
2022-12-20T23:46:56.079Z,27.57
2022-12-20T23:49:24.668Z,26.70
2022-12-20T23:51:53.249Z,32.83
2022-12-20T23:54:22.396Z,30.27
2022-12-20T23:56:50.965Z,36.00
2022-12-20T23:59:19.433Z,30.77
